createdAt,value
2019-04-06T00:01:14.342Z,88.50
2019-04-06T00:03:42.758Z,93.30
2019-04-06T00:06:11.639Z,93.10
2019-04-06T00:08:39.739Z,92.60
2019-04-06T00:18:31.949Z,92.50
2019-04-06T00:21:00.324Z,93.10
2019-04-06T00:23:28.310Z,93.30
2019-04-06T00:25:55.939Z,88.10
2019-04-06T00:33:29.983Z,93.00
2019-04-06T00:45:50.251Z,92.10
2019-04-06T00:53:14.929Z,93.50
2019-04-06T00:55:42.631Z,91.50
2019-04-06T01:05:34.525Z,90.70
2019-04-06T01:08:03.069Z,90.20
2019-04-06T01:10:31.573Z,91.00
2019-04-06T01:12:59.870Z,95.40
2019-04-06T01:15:27.850Z,95.30
2019-04-06T01:17:56.295Z,91.00
2019-04-06T01:20:23.988Z,94.90
2019-04-06T01:30:16.916Z,95.30
2019-04-06T01:32:44.984Z,91.80
2019-04-06T01:35:12.725Z,95.50
2019-04-06T01:37:41.298Z,92.20
2019-04-06T01:40:09.789Z,92.50
2019-04-06T01:42:38.185Z,92.20
2019-04-06T01:45:06.640Z,92.20
2019-04-06T01:47:34.958Z,95.90
2019-04-06T01:50:03.052Z,95.70
2019-04-06T01:52:31.378Z,90.90
2019-04-06T01:54:59.312Z,90.60
2019-04-06T01:57:27.561Z,89.00
2019-04-06T01:59:55.929Z,90.10
2019-04-06T02:02:35.207Z,92.70
2019-04-06T02:05:04.048Z,93.80
2019-04-06T02:07:32.738Z,90.80
2019-04-06T02:10:00.988Z,94.40
2019-04-06T02:12:31.183Z,91.70
2019-04-06T02:14:59.282Z,91.70
2019-04-06T02:17:27.249Z,87.50
2019-04-06T02:19:55.733Z,94.50
2019-04-06T02:24:51.314Z,91.70
2019-04-06T02:27:18.999Z,95.50
2019-04-06T02:29:48.831Z,92.20
2019-04-06T02:32:32.628Z,92.20
2019-04-06T02:35:20.285Z,92.00
2019-04-06T02:38:19.875Z,94.70
2019-04-06T02:40:56.809Z,91.70
2019-04-06T02:43:27.070Z,91.50
2019-04-06T02:45:55.112Z,91.80
2019-04-06T02:48:22.761Z,88.20
2019-04-06T02:50:51.187Z,95.50
2019-04-06T02:53:19.942Z,91.50
2019-04-06T02:55:48.054Z,94.50
2019-04-06T02:58:16.912Z,91.80
2019-04-06T03:00:45.372Z,91.60
2019-04-06T03:03:13.861Z,95.40
2019-04-06T03:05:41.593Z,88.40
2019-04-06T03:08:10.402Z,91.10
2019-04-06T03:10:39.987Z,91.20
2019-04-06T03:13:08.991Z,91.00
2019-04-06T03:15:37.137Z,94.90
2019-04-06T03:18:05.700Z,94.80
2019-04-06T03:20:34.137Z,95.20
2019-04-06T03:23:02.144Z,91.70
2019-04-06T03:25:30.298Z,92.30
2019-04-06T03:27:58.668Z,92.30
2019-04-06T03:30:26.868Z,92.10
2019-04-06T03:32:55.041Z,96.50
2019-04-06T03:35:23.099Z,92.70
2019-04-06T03:37:50.811Z,93.10
2019-04-06T03:40:19.511Z,95.30
2019-04-06T03:42:47.931Z,91.40
2019-04-06T03:45:16.448Z,91.00
2019-04-06T03:47:44.140Z,90.80
2019-04-06T03:50:12.460Z,95.10
2019-04-06T03:52:40.478Z,92.80
2019-04-06T03:57:40.907Z,91.90
2019-04-06T04:00:09.068Z,91.90
2019-04-06T04:02:37.341Z,95.40
2019-04-06T04:05:05.485Z,91.50
2019-04-06T04:07:34.092Z,95.20
2019-04-06T04:12:30.745Z,95.30
2019-04-06T04:14:59.185Z,90.60
2019-04-06T04:17:27.192Z,95.20
2019-04-06T04:19:55.270Z,94.50
2019-04-06T04:22:23.652Z,94.60
2019-04-06T04:24:52.042Z,94.30
2019-04-06T04:27:28.339Z,90.50
2019-04-06T04:29:51.425Z,90.60
2019-04-06T04:32:20.121Z,91.00
2019-04-06T04:34:51.290Z,93.20
2019-04-06T04:37:19.655Z,91.30
2019-04-06T04:42:16.793Z,92.30
2019-04-06T04:47:12.689Z,97.00
2019-04-06T04:49:43.763Z,88.70
2019-04-06T04:54:40.308Z,97.10
2019-04-06T04:57:11.617Z,96.50
2019-04-06T04:59:39.776Z,91.90
2019-04-06T05:02:08.375Z,96.10
2019-04-06T05:04:38.292Z,92.40
2019-04-06T05:07:06.254Z,95.30
2019-04-06T05:09:35.336Z,90.90
2019-04-06T05:12:03.003Z,94.80
2019-04-06T05:14:59.190Z,94.60
2019-04-06T05:17:27.555Z,90.80
2019-04-06T05:19:55.984Z,91.00
2019-04-06T05:22:24.389Z,94.30
2019-04-06T05:24:52.499Z,90.20
2019-04-06T05:27:21.122Z,94.40
2019-04-06T05:32:18.321Z,90.80
2019-04-06T05:37:14.756Z,89.60
2019-04-06T05:39:43.095Z,89.70
2019-04-06T05:42:10.807Z,94.30
2019-04-06T05:44:38.952Z,93.70
2019-04-06T05:47:06.773Z,94.90
2019-04-06T05:52:03.839Z,90.30
2019-04-06T05:59:30.809Z,92.90
2019-04-06T06:01:58.651Z,92.00
2019-04-06T06:04:27.069Z,90.70
2019-04-06T06:06:57.113Z,88.80
2019-04-06T06:09:25.243Z,89.80
2019-04-06T06:11:55.537Z,90.40
2019-04-06T06:14:23.232Z,87.80
2019-04-06T06:16:52.208Z,93.00
2019-04-06T06:19:20.972Z,92.30
2019-04-06T06:21:49.680Z,83.40
2019-04-06T06:24:19.375Z,92.20
2019-04-06T06:36:39.900Z,81.70
2019-04-06T06:39:08.718Z,82.50
2019-04-06T06:41:37.131Z,90.20
2019-04-06T06:46:33.659Z,78.60
2019-04-06T06:56:25.792Z,76.60
2019-04-06T07:01:22.852Z,72.00
2019-04-06T07:03:50.508Z,67.30
2019-04-06T07:06:18.210Z,70.20
2019-04-06T07:08:46.637Z,71.80
2019-04-06T07:18:41.120Z,79.90
2019-04-06T07:21:09.564Z,68.60
2019-04-06T07:26:05.336Z,61.60
2019-04-06T07:28:38.449Z,69.70
2019-04-06T07:31:04.300Z,71.60
2019-04-06T07:36:00.220Z,74.00
2019-04-06T07:43:23.861Z,71.00
2019-04-06T07:48:23.540Z,75.30
2019-04-06T07:50:52.532Z,68.80
2019-04-06T07:53:20.553Z,75.80
2019-04-06T08:00:45.087Z,71.00
2019-04-06T08:03:13.240Z,82.10
2019-04-06T08:05:41.549Z,81.90
2019-04-06T08:08:09.598Z,72.20
2019-04-06T08:13:05.750Z,84.10
2019-04-06T08:18:01.792Z,75.40
2019-04-06T08:20:30.421Z,84.90
2019-04-06T08:25:28.225Z,74.90
2019-04-06T08:40:18.219Z,68.80
2019-04-06T08:50:12.152Z,58.70
2019-04-06T08:55:08.613Z,65.30
2019-04-06T09:00:06.347Z,75.70
2019-04-06T09:09:59.582Z,69.00
2019-04-06T09:19:53.636Z,75.50
2019-04-06T10:15:28.325Z,64.40
2019-04-06T10:18:11.540Z,59.30
2019-04-06T10:20:59.500Z,62.10
2019-04-06T10:26:52.695Z,50.00
2019-04-06T10:29:49.535Z,61.00
2019-04-06T10:38:14.872Z,52.60
2019-04-06T10:41:09.461Z,75.20
2019-04-06T10:43:56.229Z,72.20
2019-04-06T10:46:46.458Z,62.40
2019-04-06T10:49:49.575Z,58.90
2019-04-06T10:52:33.224Z,69.10
2019-04-06T11:17:44.842Z,69.60
2019-04-06T11:20:44.107Z,68.50
2019-04-06T11:26:27.191Z,56.30
2019-04-06T11:29:23.948Z,45.30
2019-04-06T11:40:42.939Z,50.80
2019-04-06T11:49:26.794Z,49.00
2019-04-06T11:52:14.312Z,49.20
2019-04-06T12:03:04.718Z,50.10
2019-04-06T12:05:44.850Z,46.80
2019-04-06T12:11:42.893Z,40.90
2019-04-06T12:14:28.043Z,48.70
2019-04-06T12:17:25.317Z,52.40
2019-04-06T12:23:00.210Z,52.10
2019-04-06T12:25:48.421Z,42.00
2019-04-06T12:28:45.422Z,44.10
2019-04-06T12:36:58.319Z,48.40
2019-04-06T12:39:53.012Z,46.90
2019-04-06T12:42:36.578Z,49.00
2019-04-06T12:48:31.696Z,39.40
2019-04-06T12:51:14.188Z,50.40
2019-04-06T12:53:52.259Z,40.30
2019-04-06T12:56:42.991Z,43.70
2019-04-06T12:59:39.250Z,40.40
2019-04-06T13:02:16.414Z,46.70
2019-04-06T13:05:13.450Z,41.10
2019-04-06T13:10:38.069Z,46.30
2019-04-06T13:13:27.766Z,46.40
2019-04-06T13:16:02.074Z,41.50
2019-04-06T13:21:27.230Z,43.80
2019-04-06T13:24:03.702Z,45.00
2019-04-06T13:26:44.620Z,42.40
2019-04-06T13:29:31.491Z,46.00
2019-04-06T13:32:17.857Z,42.40
2019-04-06T13:34:59.644Z,48.60
2019-04-06T13:38:02.337Z,48.50
2019-04-06T13:41:01.544Z,46.90
2019-04-06T13:43:48.459Z,47.60
2019-04-06T13:46:50.614Z,43.10
2019-04-06T13:49:36.723Z,47.50
2019-04-06T13:52:13.181Z,42.80
2019-04-06T13:55:00.823Z,42.40
2019-04-06T13:57:40.093Z,42.70
2019-04-06T14:00:30.031Z,49.10
2019-04-06T14:03:24.693Z,42.80
2019-04-06T14:14:35.880Z,46.70
2019-04-06T14:17:22.508Z,43.30
2019-04-06T14:28:31.128Z,43.50
2019-04-06T14:34:36.479Z,44.00
2019-04-06T14:37:29.464Z,42.60
2019-04-06T14:43:29.074Z,47.50
2019-04-06T14:46:15.770Z,42.50
2019-04-06T14:49:14.246Z,44.00
2019-04-06T14:51:48.658Z,44.10
2019-04-06T14:54:26.251Z,44.90
2019-04-06T14:57:05.849Z,44.70
2019-04-06T14:59:54.871Z,40.90
2019-04-06T15:02:31.040Z,44.20
2019-04-06T15:08:32.751Z,46.70
2019-04-06T15:11:21.731Z,45.50
2019-04-06T15:14:12.802Z,41.90
2019-04-06T15:17:02.112Z,46.10
2019-04-06T15:25:22.521Z,46.70
2019-04-06T15:31:12.659Z,48.10
2019-04-06T15:34:00.952Z,42.30
2019-04-06T15:36:43.539Z,44.80
2019-04-06T15:39:26.698Z,48.70
2019-04-06T15:42:24.135Z,49.00
2019-04-06T15:45:08.211Z,43.70
2019-04-06T15:48:00.929Z,50.00
2019-04-06T15:53:51.090Z,45.40
2019-04-06T15:59:19.810Z,44.90
2019-04-06T16:02:10.945Z,47.50
2019-04-06T16:10:26.270Z,46.30
2019-04-06T16:13:13.685Z,47.30
2019-04-06T16:16:08.233Z,50.60
2019-04-06T16:18:59.590Z,47.60
2019-04-06T16:21:50.614Z,44.60
2019-04-06T16:24:30.611Z,47.30
2019-04-06T16:35:36.838Z,44.80
2019-04-06T16:41:24.916Z,49.10
2019-04-06T16:46:54.936Z,45.60
2019-04-06T16:49:42.214Z,53.30
2019-04-06T16:52:28.796Z,46.00
2019-04-06T17:00:48.803Z,51.90
2019-04-06T17:03:37.588Z,50.00
2019-04-06T17:12:15.311Z,45.50
2019-04-06T17:26:33.191Z,48.90
2019-04-06T17:29:13.751Z,46.50
2019-04-06T17:31:48.229Z,46.30
2019-04-06T17:34:25.867Z,52.20
2019-04-06T17:40:07.346Z,50.20
2019-04-06T17:42:50.483Z,51.90
2019-04-06T17:48:14.681Z,52.20
2019-04-06T17:51:02.400Z,49.00
2019-04-06T17:59:22.737Z,55.00
2019-04-06T18:02:10.107Z,48.20
2019-04-06T18:04:55.840Z,48.30
2019-04-06T18:07:50.111Z,48.60
2019-04-06T18:15:40.484Z,56.70
2019-04-06T18:18:08.241Z,50.80
2019-04-06T18:20:37.327Z,51.50
2019-04-06T18:25:34.908Z,58.50
2019-04-06T18:28:03.017Z,53.70
2019-04-06T18:30:32.130Z,53.70
2019-04-06T18:33:04.112Z,60.70
2019-04-06T18:38:12.815Z,54.20
2019-04-06T18:40:41.252Z,58.60
2019-04-06T18:48:13.659Z,62.10
2019-04-06T18:53:10.469Z,61.60
2019-04-06T18:58:11.231Z,66.00
2019-04-06T19:00:37.869Z,56.60
2019-04-06T19:03:14.735Z,65.30
2019-04-06T19:08:09.882Z,67.40
2019-04-06T19:10:39.371Z,57.40
2019-04-06T19:13:09.959Z,63.70
2019-04-06T19:15:41.127Z,58.40
2019-04-06T19:18:09.292Z,65.30
2019-04-06T19:23:07.366Z,60.70
2019-04-06T19:25:36.546Z,65.40
2019-04-06T19:28:04.543Z,61.50
2019-04-06T19:30:32.811Z,58.40
2019-04-06T19:33:01.519Z,58.80
2019-04-06T19:35:30.694Z,66.30
2019-04-06T19:37:59.588Z,58.50
2019-04-06T19:47:56.894Z,58.20
2019-04-06T19:50:25.182Z,61.90
2019-04-06T19:52:53.275Z,62.10
2019-04-06T19:55:22.940Z,56.20
2019-04-06T19:57:51.686Z,58.70
2019-04-06T20:05:20.692Z,56.00
2019-04-06T20:07:51.454Z,60.50
2019-04-06T20:10:19.993Z,62.00
2019-04-06T20:12:48.086Z,57.00
2019-04-06T20:15:16.467Z,59.90
2019-04-06T20:17:46.159Z,60.50
2019-04-06T20:20:18.708Z,63.90
2019-04-06T20:22:46.965Z,56.30
2019-04-06T20:30:12.254Z,61.80
2019-04-06T20:35:09.416Z,56.60
2019-04-06T20:37:38.538Z,60.10
2019-04-06T20:40:08.609Z,56.60
2019-04-06T20:42:39.439Z,59.30
2019-04-06T20:45:08.387Z,61.00
2019-04-06T20:55:04.828Z,58.00
2019-04-06T20:57:35.320Z,66.50
2019-04-06T21:00:04.461Z,57.30
2019-04-06T21:02:33.207Z,64.50
2019-04-06T21:05:02.192Z,62.50
2019-04-06T21:09:59.413Z,59.80
2019-04-06T21:17:24.386Z,56.10
2019-04-06T21:19:52.709Z,57.70
2019-04-06T21:22:21.544Z,56.60
2019-04-06T21:27:19.613Z,56.40
2019-04-06T21:39:48.437Z,60.80
2019-04-06T21:42:18.568Z,59.20
2019-04-06T21:47:22.077Z,56.30
2019-04-06T21:49:52.992Z,59.50
2019-04-06T21:52:23.846Z,59.40
2019-04-06T21:54:52.398Z,61.50
2019-04-06T21:57:21.801Z,56.00
2019-04-06T22:02:18.498Z,63.20
2019-04-06T22:09:46.784Z,63.50
2019-04-06T22:12:16.547Z,60.30
2019-04-06T22:14:44.180Z,62.70
2019-04-06T22:17:12.397Z,60.80
2019-04-06T22:19:41.021Z,59.30
2019-04-06T22:29:34.266Z,60.50
2019-04-06T22:32:02.710Z,60.60
2019-04-06T22:34:38.842Z,57.00
2019-04-06T22:39:30.139Z,62.00
2019-04-06T22:41:58.301Z,56.00
2019-04-06T22:46:55.088Z,55.70
2019-04-06T22:54:20.852Z,55.90
2019-04-06T22:59:18.010Z,56.20
2019-04-06T23:01:46.552Z,62.80
2019-04-06T23:04:23.136Z,56.70
2019-04-06T23:06:57.734Z,63.40
2019-04-06T23:14:22.457Z,56.50
2019-04-06T23:16:50.542Z,66.50
2019-04-06T23:19:19.092Z,58.10
2019-04-06T23:21:46.751Z,56.10
2019-04-06T23:29:12.975Z,64.40
2019-04-06T23:34:10.041Z,61.00
2019-04-06T23:36:38.659Z,56.50
2019-04-06T23:39:08.061Z,64.20
2019-04-06T23:44:05.229Z,63.30
2019-04-06T23:46:33.732Z,64.60
2019-04-06T23:49:02.648Z,65.00
2019-04-06T23:51:33.231Z,63.80
2019-04-06T23:56:29.929Z,56.60
2019-04-06T23:58:58.089Z,56.50
